createdAt,value
2018-07-13T00:00:03.636Z,4.10
2018-07-13T00:02:34.529Z,4.27
2018-07-13T00:05:08.776Z,4.00
2018-07-13T00:07:38.603Z,4.83
2018-07-13T00:10:07.215Z,4.03
2018-07-13T00:12:36.139Z,4.07
2018-07-13T00:15:07.660Z,4.30
2018-07-13T00:17:36.418Z,4.07
2018-07-13T00:20:05.141Z,3.93
2018-07-13T00:22:33.872Z,3.73
2018-07-13T00:25:02.473Z,4.30
2018-07-13T00:27:31.009Z,4.43
2018-07-13T00:29:59.615Z,3.90
2018-07-13T00:32:28.180Z,3.27
2018-07-13T00:34:56.722Z,4.43
2018-07-13T00:37:25.688Z,3.40
2018-07-13T00:39:54.258Z,3.57
2018-07-13T00:42:22.919Z,4.67
2018-07-13T00:44:51.472Z,3.23
2018-07-13T00:47:21.193Z,3.60
2018-07-13T00:49:49.806Z,3.37
2018-07-13T00:52:18.352Z,4.30
2018-07-13T00:54:46.904Z,4.00
2018-07-13T00:57:15.580Z,3.80
2018-07-13T00:59:44.140Z,3.40
2018-07-13T01:02:12.718Z,4.17
2018-07-13T01:04:41.364Z,3.73
2018-07-13T01:07:10.299Z,3.60
2018-07-13T01:09:39.090Z,3.80
2018-07-13T01:12:07.646Z,4.13
2018-07-13T01:14:36.216Z,5.03
2018-07-13T01:17:04.899Z,5.47
2018-07-13T01:19:33.428Z,4.30
2018-07-13T01:22:02.056Z,4.50
2018-07-13T01:24:30.640Z,4.20
2018-07-13T01:26:59.178Z,4.43
2018-07-13T01:29:27.897Z,3.93
2018-07-13T01:31:56.493Z,4.57
2018-07-13T01:34:25.082Z,3.60
2018-07-13T01:36:53.993Z,3.53
2018-07-13T01:39:22.993Z,4.07
2018-07-13T01:41:51.624Z,4.17
2018-07-13T01:44:20.541Z,3.83
2018-07-13T01:46:49.138Z,4.57
2018-07-13T01:49:18.594Z,4.13
2018-07-13T01:51:47.168Z,3.63
2018-07-13T01:54:15.766Z,5.00
2018-07-13T01:56:44.337Z,4.30
2018-07-13T01:59:12.983Z,3.30
2018-07-13T02:01:41.534Z,3.97
2018-07-13T02:04:10.118Z,3.60
2018-07-13T02:06:43.105Z,4.10
2018-07-13T02:09:12.000Z,3.70
2018-07-13T02:11:40.712Z,4.10
2018-07-13T02:14:09.301Z,3.43
2018-07-13T02:16:38.018Z,3.77
2018-07-13T02:19:06.992Z,3.87
2018-07-13T02:21:35.736Z,4.30
2018-07-13T02:24:04.323Z,3.50
2018-07-13T02:26:32.907Z,4.73
2018-07-13T02:29:01.474Z,4.70
2018-07-13T02:31:30.521Z,3.30
2018-07-13T02:33:59.320Z,4.27
2018-07-13T02:36:27.854Z,4.90
2018-07-13T02:38:56.439Z,4.67
2018-07-13T02:41:25.371Z,4.20
2018-07-13T02:43:54.037Z,4.37
2018-07-13T02:46:22.645Z,4.33
2018-07-13T02:48:51.203Z,4.73
2018-07-13T02:51:19.853Z,3.93
2018-07-13T02:53:48.449Z,4.00
2018-07-13T02:56:17.025Z,4.17
2018-07-13T02:58:45.615Z,4.47
2018-07-13T03:01:14.237Z,4.30
2018-07-13T03:03:42.831Z,4.60
2018-07-13T03:06:11.366Z,3.60
2018-07-13T03:08:39.941Z,4.80
2018-07-13T03:11:08.699Z,4.10
2018-07-13T03:13:37.277Z,4.37
2018-07-13T03:16:05.960Z,4.90
2018-07-13T03:18:34.661Z,4.63
2018-07-13T03:21:03.237Z,4.93
2018-07-13T03:23:31.916Z,5.70
2018-07-13T03:26:00.608Z,4.83
2018-07-13T03:28:29.208Z,5.40
2018-07-13T03:30:57.806Z,5.50
2018-07-13T03:33:26.480Z,5.30
2018-07-13T03:35:55.086Z,4.87
2018-07-13T03:38:23.637Z,4.77
2018-07-13T03:40:52.213Z,4.97
2018-07-13T03:43:20.825Z,5.03
2018-07-13T03:45:49.419Z,4.90
2018-07-13T03:48:18.102Z,4.20
2018-07-13T03:50:46.671Z,4.63
2018-07-13T03:53:15.537Z,4.50
2018-07-13T03:55:44.108Z,4.30
2018-07-13T03:58:13.099Z,4.30
2018-07-13T04:00:41.630Z,5.03
2018-07-13T04:03:10.920Z,4.60
2018-07-13T04:05:43.357Z,5.20
2018-07-13T04:08:17.219Z,5.80
2018-07-13T04:10:45.824Z,4.13
2018-07-13T04:13:16.042Z,4.90
2018-07-13T04:15:44.645Z,5.97
2018-07-13T04:18:18.156Z,5.43
2018-07-13T04:20:46.858Z,4.90
2018-07-13T04:23:15.867Z,5.60
2018-07-13T04:25:44.469Z,4.90
2018-07-13T04:28:13.227Z,5.27
2018-07-13T04:30:42.410Z,4.90
2018-07-13T04:33:11.017Z,5.00
2018-07-13T04:35:39.997Z,5.03
2018-07-13T04:38:08.592Z,5.40
2018-07-13T04:40:37.202Z,5.40
2018-07-13T04:43:05.792Z,5.13
2018-07-13T04:45:34.405Z,4.90
2018-07-13T04:48:03.150Z,5.00
2018-07-13T04:50:31.866Z,5.57
2018-07-13T04:53:00.909Z,4.47
2018-07-13T04:55:29.781Z,5.40
2018-07-13T04:57:58.470Z,5.00
2018-07-13T05:00:27.550Z,5.20
2018-07-13T05:02:56.165Z,5.70
2018-07-13T05:05:24.811Z,5.17
2018-07-13T05:07:53.380Z,5.17
2018-07-13T05:10:22.523Z,6.10
2018-07-13T05:12:51.185Z,5.27
2018-07-13T05:15:19.884Z,4.90
2018-07-13T05:17:48.461Z,6.30
2018-07-13T05:20:17.078Z,5.03
2018-07-13T05:22:45.652Z,5.70
2018-07-13T05:25:14.842Z,6.40
2018-07-13T05:27:43.655Z,4.80
2018-07-13T05:30:12.273Z,4.40
2018-07-13T05:32:41.156Z,5.20
2018-07-13T05:35:09.906Z,4.20
2018-07-13T05:37:38.680Z,4.00
2018-07-13T05:40:07.324Z,4.93
2018-07-13T05:42:35.921Z,4.43
2018-07-13T05:45:05.110Z,4.47
2018-07-13T05:47:33.718Z,4.07
2018-07-13T05:50:02.316Z,4.30
2018-07-13T05:52:30.946Z,4.00
2018-07-13T05:55:00.281Z,4.43
2018-07-13T05:57:28.941Z,3.83
2018-07-13T05:59:57.551Z,4.03
2018-07-13T06:02:26.205Z,3.93
2018-07-13T06:04:54.808Z,3.43
2018-07-13T06:07:30.511Z,4.10
2018-07-13T06:09:59.121Z,3.70
2018-07-13T06:12:27.919Z,3.90
2018-07-13T06:14:56.519Z,4.40
2018-07-13T06:17:25.093Z,4.13
2018-07-13T06:19:53.685Z,4.00
2018-07-13T06:22:22.439Z,4.27
2018-07-13T06:24:50.984Z,4.30
2018-07-13T06:27:19.546Z,3.37
2018-07-13T06:29:48.135Z,3.93
2018-07-13T06:32:16.712Z,3.67
2018-07-13T06:34:45.326Z,4.07
2018-07-13T06:37:14.010Z,4.23
2018-07-13T06:39:42.788Z,3.83
2018-07-13T06:42:11.401Z,4.20
2018-07-13T06:44:40.075Z,4.23
2018-07-13T06:47:08.607Z,4.40
2018-07-13T06:49:37.188Z,4.00
2018-07-13T06:52:06.100Z,3.63
2018-07-13T06:54:34.672Z,3.87
2018-07-13T06:57:04.269Z,4.03
2018-07-13T06:59:32.876Z,4.10
2018-07-13T07:02:01.485Z,4.10
2018-07-13T07:04:34.572Z,3.40
2018-07-13T07:07:09.536Z,4.27
2018-07-13T07:09:39.252Z,4.03
2018-07-13T07:12:54.524Z,3.23
2018-07-13T07:15:24.318Z,3.37
2018-07-13T07:17:53.703Z,3.57
2018-07-13T07:20:22.315Z,3.80
2018-07-13T07:22:50.955Z,3.57
2018-07-13T07:25:19.621Z,3.63
2018-07-13T07:27:48.212Z,3.53
2018-07-13T07:30:16.867Z,3.40
2018-07-13T07:32:45.797Z,3.90
2018-07-13T07:35:15.095Z,3.97
2018-07-13T07:37:43.704Z,3.50
2018-07-13T07:40:12.332Z,3.97
2018-07-13T07:42:41.336Z,3.73
2018-07-13T07:45:10.127Z,3.10
2018-07-13T07:47:38.748Z,4.00
2018-07-13T07:50:07.504Z,4.13
2018-07-13T07:52:36.350Z,3.43
2018-07-13T07:55:04.992Z,4.17
2018-07-13T07:57:33.662Z,4.00
2018-07-13T08:00:02.222Z,3.40
2018-07-13T08:02:30.816Z,3.90
2018-07-13T08:04:59.545Z,3.90
2018-07-13T08:07:28.114Z,4.47
2018-07-13T08:09:56.683Z,4.43
2018-07-13T08:12:25.276Z,4.13
2018-07-13T08:14:53.877Z,4.70
2018-07-13T08:17:22.542Z,3.67
2018-07-13T08:19:51.211Z,3.70
2018-07-13T08:22:31.328Z,4.40
2018-07-13T08:25:00.361Z,4.20
2018-07-13T08:27:35.681Z,3.73
2018-07-13T08:30:05.799Z,4.27
2018-07-13T08:32:34.377Z,4.37
2018-07-13T08:35:02.964Z,4.40
2018-07-13T08:37:31.529Z,4.20
2018-07-13T08:40:00.138Z,3.80
2018-07-13T08:42:28.771Z,4.00
2018-07-13T08:44:57.340Z,4.73
2018-07-13T08:47:26.107Z,3.90
2018-07-13T08:49:54.704Z,4.17
2018-07-13T08:52:23.880Z,4.57
2018-07-13T08:54:52.498Z,4.20
2018-07-13T08:57:21.073Z,4.17
2018-07-13T08:59:49.733Z,3.87
2018-07-13T09:02:18.348Z,3.67
2018-07-13T09:04:46.974Z,4.03
2018-07-13T09:07:15.541Z,4.07
2018-07-13T09:09:44.142Z,3.40
2018-07-13T09:12:12.742Z,3.60
2018-07-13T09:14:42.404Z,4.00
2018-07-13T09:17:11.121Z,4.00
2018-07-13T09:19:39.720Z,4.00
2018-07-13T09:22:08.404Z,4.33
2018-07-13T09:24:37.018Z,3.67
2018-07-13T09:27:05.720Z,4.30
2018-07-13T09:29:34.361Z,4.00
2018-07-13T09:32:02.984Z,4.03
2018-07-13T09:34:31.580Z,3.90
2018-07-13T09:37:00.132Z,3.73
2018-07-13T09:39:28.893Z,4.40
2018-07-13T09:41:57.485Z,3.43
2018-07-13T09:44:29.010Z,4.73
2018-07-13T09:46:57.705Z,3.97
2018-07-13T09:49:26.234Z,3.87
2018-07-13T09:51:54.881Z,4.00
2018-07-13T09:54:24.314Z,4.30
2018-07-13T09:56:53.084Z,4.33
2018-07-13T09:59:21.832Z,3.83
2018-07-13T10:01:50.419Z,3.63
2018-07-13T10:04:19.040Z,3.97
2018-07-13T10:06:47.757Z,3.50
2018-07-13T10:09:16.419Z,4.03
2018-07-13T10:11:45.042Z,2.90
2018-07-13T10:14:13.629Z,3.53
2018-07-13T10:19:32.610Z,3.83
2018-07-13T10:22:01.455Z,4.37
2018-07-13T10:24:31.264Z,4.10
2018-07-13T10:26:59.931Z,3.97
2018-07-13T10:29:37.097Z,3.90
2018-07-13T10:32:05.738Z,4.37
2018-07-13T10:34:34.806Z,5.80
2018-07-13T10:37:05.085Z,4.23
2018-07-13T10:39:34.416Z,4.03
2018-07-13T10:42:03.001Z,3.73
2018-07-13T10:44:31.652Z,4.27
2018-07-13T10:47:00.351Z,4.20
2018-07-13T10:49:29.118Z,4.37
2018-07-13T10:51:57.665Z,4.13
2018-07-13T10:54:26.436Z,4.10
2018-07-13T10:56:55.082Z,4.43
2018-07-13T10:59:23.631Z,4.27
2018-07-13T11:01:52.199Z,5.00
2018-07-13T11:04:20.999Z,4.87
2018-07-13T11:06:49.562Z,4.40
2018-07-13T11:09:18.964Z,4.40
2018-07-13T11:11:47.550Z,4.57
2018-07-13T11:14:16.112Z,5.50
2018-07-13T11:16:44.712Z,5.17
2018-07-13T11:19:15.270Z,4.47
2018-07-13T11:21:43.907Z,3.80
2018-07-13T11:24:12.501Z,4.70
2018-07-13T11:26:41.121Z,5.20
2018-07-13T11:29:10.036Z,4.93
2018-07-13T11:31:38.736Z,5.20
2018-07-13T11:34:07.478Z,4.30
2018-07-13T11:36:36.104Z,4.80
2018-07-13T11:39:05.789Z,5.43
2018-07-13T11:41:34.424Z,5.03
2018-07-13T11:44:03.075Z,5.20
2018-07-13T11:46:31.660Z,4.43
2018-07-13T11:49:00.295Z,6.10
2018-07-13T11:51:29.005Z,5.13
2018-07-13T11:53:58.289Z,5.63
2018-07-13T11:56:26.852Z,5.90
2018-07-13T11:58:55.517Z,5.50
2018-07-13T12:01:24.157Z,5.03
2018-07-13T12:03:52.772Z,4.37
2018-07-13T12:06:22.187Z,5.07
2018-07-13T12:08:50.865Z,4.30
2018-07-13T12:11:19.584Z,4.57
2018-07-13T12:13:48.165Z,5.10
2018-07-13T12:16:16.852Z,5.10
2018-07-13T12:18:45.448Z,5.10
2018-07-13T12:21:15.161Z,4.00
2018-07-13T12:23:43.774Z,4.30
2018-07-13T12:26:12.360Z,4.70
2018-07-13T12:28:41.123Z,5.33
2018-07-13T12:31:09.835Z,4.40
2018-07-13T12:33:38.450Z,4.73
2018-07-13T12:36:07.106Z,3.90
2018-07-13T12:38:35.707Z,3.53
2018-07-13T12:41:04.337Z,4.40
2018-07-13T12:43:32.901Z,3.40
2018-07-13T12:46:01.472Z,3.90
2018-07-13T12:48:30.074Z,3.90
2018-07-13T12:50:58.648Z,4.33
2018-07-13T12:53:27.242Z,3.80
2018-07-13T12:55:55.841Z,4.33
2018-07-13T12:58:24.505Z,4.53
2018-07-13T13:00:53.037Z,4.07
2018-07-13T13:03:21.653Z,4.13
2018-07-13T13:05:50.211Z,4.37
2018-07-13T13:08:19.118Z,4.00
2018-07-13T13:10:47.690Z,3.80
2018-07-13T13:13:16.312Z,3.80
2018-07-13T13:15:44.872Z,4.00
2018-07-13T13:18:13.425Z,4.00
2018-07-13T13:20:42.033Z,4.13
2018-07-13T13:23:10.798Z,3.73
2018-07-13T13:25:39.614Z,3.63
2018-07-13T13:28:08.238Z,3.97
2018-07-13T13:30:36.953Z,4.77
2018-07-13T13:33:05.609Z,4.10
2018-07-13T13:35:34.181Z,4.00
2018-07-13T13:38:02.766Z,3.93
2018-07-13T13:40:31.357Z,4.50
2018-07-13T13:42:59.942Z,4.00
2018-07-13T13:45:28.731Z,4.17
2018-07-13T13:47:57.307Z,4.10
2018-07-13T13:50:26.124Z,5.00
2018-07-13T13:52:54.812Z,3.53
2018-07-13T13:55:23.364Z,3.80
2018-07-13T13:57:51.964Z,2.90
2018-07-13T14:00:20.595Z,3.90
2018-07-13T14:02:50.090Z,4.07
2018-07-13T14:05:19.324Z,3.20
2018-07-13T14:07:49.938Z,5.47
2018-07-13T14:10:18.528Z,3.53
2018-07-13T14:12:47.299Z,5.00
2018-07-13T14:15:16.277Z,4.50
2018-07-13T14:17:44.818Z,4.77
2018-07-13T14:20:13.425Z,4.13
2018-07-13T14:22:41.984Z,4.40
2018-07-13T14:25:10.694Z,4.33
2018-07-13T14:27:39.467Z,3.70
2018-07-13T14:30:08.215Z,4.20
2018-07-13T14:32:36.947Z,4.20
2018-07-13T14:35:05.786Z,3.30
2018-07-13T14:37:34.796Z,3.63
2018-07-13T14:40:03.536Z,3.53
2018-07-13T14:42:32.064Z,4.13
2018-07-13T14:45:00.720Z,4.17
2018-07-13T14:47:29.460Z,4.10
2018-07-13T14:49:58.078Z,3.63
2018-07-13T14:52:26.879Z,5.53
2018-07-13T14:54:55.457Z,5.87
2018-07-13T14:57:24.172Z,4.43
2018-07-13T14:59:52.714Z,5.30
2018-07-13T15:02:21.329Z,4.43
2018-07-13T15:04:49.936Z,4.53
2018-07-13T15:07:18.669Z,4.37
2018-07-13T15:09:47.429Z,5.30
2018-07-13T15:12:16.006Z,4.00
2018-07-13T15:14:44.586Z,4.27
2018-07-13T15:17:13.791Z,4.40
2018-07-13T15:19:42.395Z,4.17
2018-07-13T15:22:10.960Z,3.77
2018-07-13T15:24:39.825Z,4.30
2018-07-13T15:27:10.504Z,3.83
2018-07-13T15:29:39.174Z,4.37
2018-07-13T15:32:07.853Z,4.10
2018-07-13T15:34:36.430Z,3.77
2018-07-13T15:37:05.052Z,4.60
2018-07-13T15:39:33.617Z,3.97
2018-07-13T15:42:02.271Z,4.60
2018-07-13T15:44:30.823Z,3.67
2018-07-13T15:46:59.390Z,3.70
2018-07-13T15:49:28.036Z,3.40
2018-07-13T15:51:56.606Z,3.20
2018-07-13T15:54:25.486Z,3.70
2018-07-13T15:56:54.150Z,4.07
2018-07-13T15:59:22.911Z,3.70
2018-07-13T16:01:51.544Z,3.23
2018-07-13T16:04:20.250Z,3.27
2018-07-13T16:06:49.616Z,3.37
2018-07-13T16:09:18.263Z,3.37
2018-07-13T16:11:48.531Z,2.67
2018-07-13T16:14:17.292Z,3.00
2018-07-13T16:16:46.081Z,3.43
2018-07-13T16:19:15.391Z,2.53
2018-07-13T16:21:44.084Z,3.20
2018-07-13T16:24:12.663Z,2.90
2018-07-13T16:26:41.261Z,3.20
2018-07-13T16:29:09.885Z,2.83
2018-07-13T16:31:38.504Z,2.33
2018-07-13T16:34:07.128Z,2.10
2018-07-13T16:36:35.814Z,2.50
2018-07-13T16:39:04.983Z,2.50
2018-07-13T16:41:33.576Z,2.60
2018-07-13T16:44:02.265Z,2.57
2018-07-13T16:46:31.150Z,2.70
2018-07-13T16:48:59.921Z,2.43
2018-07-13T16:51:28.486Z,2.07
2018-07-13T16:53:57.347Z,2.40
2018-07-13T16:56:25.952Z,2.37
2018-07-13T16:58:54.480Z,2.57
2018-07-13T17:01:23.062Z,2.60
2018-07-13T17:03:51.666Z,2.33
2018-07-13T17:06:20.232Z,2.43
2018-07-13T17:08:49.000Z,2.60
2018-07-13T17:11:17.625Z,2.80
2018-07-13T17:13:46.177Z,2.60
2018-07-13T17:16:14.912Z,2.27
2018-07-13T17:18:43.456Z,2.43
2018-07-13T17:21:12.809Z,2.40
2018-07-13T17:23:41.390Z,2.33
2018-07-13T17:26:10.598Z,2.57
2018-07-13T17:28:39.164Z,2.30
2018-07-13T17:31:07.840Z,2.43
2018-07-13T17:33:36.601Z,2.40
2018-07-13T17:36:05.168Z,3.87
2018-07-13T17:38:33.828Z,9.00
2018-07-13T17:41:02.548Z,7.03
2018-07-13T17:43:31.128Z,8.50
2018-07-13T17:45:59.779Z,7.37
2018-07-13T17:48:28.388Z,4.80
2018-07-13T17:50:56.939Z,3.50
2018-07-13T17:53:25.550Z,2.87
2018-07-13T17:55:54.124Z,3.90
2018-07-13T17:58:22.713Z,2.40
2018-07-13T18:00:51.366Z,3.17
2018-07-13T18:03:19.978Z,2.60
2018-07-13T18:05:48.804Z,3.00
2018-07-13T18:08:18.213Z,3.30
2018-07-13T18:10:47.425Z,3.30
2018-07-13T18:13:16.742Z,2.30
2018-07-13T18:15:45.315Z,3.40
2018-07-13T18:18:13.868Z,2.77
2018-07-13T18:20:42.416Z,3.30
2018-07-13T18:23:11.196Z,2.80
2018-07-13T18:25:39.797Z,3.87
2018-07-13T18:28:08.386Z,3.60
2018-07-13T18:30:37.020Z,3.70
2018-07-13T18:33:05.621Z,3.20
2018-07-13T18:35:34.220Z,2.80
2018-07-13T18:38:02.823Z,3.40
2018-07-13T18:40:31.503Z,3.00
2018-07-13T18:43:00.198Z,3.73
2018-07-13T18:45:28.993Z,2.83
2018-07-13T18:47:57.829Z,3.03
2018-07-13T18:50:26.775Z,2.90
2018-07-13T18:52:55.446Z,3.30
2018-07-13T18:55:23.984Z,3.50
2018-07-13T18:57:52.572Z,3.40
2018-07-13T19:00:21.136Z,3.23
2018-07-13T19:02:49.836Z,3.27
2018-07-13T19:05:18.931Z,4.50
2018-07-13T19:07:47.496Z,3.30
2018-07-13T19:10:16.039Z,3.93
2018-07-13T19:12:44.633Z,4.20
2018-07-13T19:15:13.364Z,4.13
2018-07-13T19:17:42.233Z,4.50
2018-07-13T19:20:10.976Z,4.80
2018-07-13T19:22:39.953Z,4.70
2018-07-13T19:25:08.660Z,4.10
2018-07-13T19:27:37.304Z,4.47
2018-07-13T19:30:05.895Z,4.40
2018-07-13T19:32:34.494Z,3.90
2018-07-13T19:35:03.177Z,4.83
2018-07-13T19:37:31.733Z,4.30
2018-07-13T19:40:00.372Z,4.13
2018-07-13T19:42:29.056Z,4.57
2018-07-13T19:44:57.583Z,3.80
2018-07-13T19:47:26.473Z,4.03
2018-07-13T19:49:55.096Z,4.30
2018-07-13T19:52:23.797Z,3.93
2018-07-13T19:54:52.392Z,3.97
2018-07-13T19:57:21.047Z,4.50
2018-07-13T19:59:49.560Z,3.57
2018-07-13T20:02:19.472Z,4.50
2018-07-13T20:04:48.046Z,4.40
2018-07-13T20:07:24.223Z,4.77
2018-07-13T20:09:55.716Z,3.97
2018-07-13T20:12:24.517Z,4.03
2018-07-13T20:14:53.124Z,4.30
2018-07-13T20:17:21.820Z,4.17
2018-07-13T20:19:50.481Z,4.40
2018-07-13T20:22:19.090Z,4.10
2018-07-13T20:24:47.668Z,3.70
2018-07-13T20:27:17.380Z,4.03
2018-07-13T20:29:46.008Z,4.73
2018-07-13T20:32:15.919Z,4.80
2018-07-13T20:34:44.757Z,4.80
2018-07-13T20:37:13.720Z,4.63
2018-07-13T20:39:42.372Z,4.70
2018-07-13T20:42:10.932Z,4.50
2018-07-13T20:44:39.543Z,4.07
2018-07-13T20:47:08.275Z,3.93
2018-07-13T20:49:37.037Z,5.03
2018-07-13T20:52:05.745Z,4.30
2018-07-13T20:54:34.363Z,5.20
2018-07-13T20:57:05.377Z,4.50
2018-07-13T20:59:34.139Z,4.37
2018-07-13T21:02:02.852Z,4.70
2018-07-13T21:04:32.329Z,4.23
2018-07-13T21:07:00.901Z,4.27
2018-07-13T21:09:29.528Z,4.03
2018-07-13T21:11:58.171Z,4.70
2018-07-13T21:14:26.794Z,3.83
2018-07-13T21:16:55.382Z,4.47
2018-07-13T21:19:24.076Z,4.10
2018-07-13T21:21:52.714Z,3.83
2018-07-13T21:24:21.379Z,4.30
2018-07-13T21:26:50.046Z,4.10
2018-07-13T21:29:18.543Z,4.63
2018-07-13T21:31:47.188Z,4.10
2018-07-13T21:34:15.919Z,4.93
2018-07-13T21:36:44.501Z,4.77
2018-07-13T21:39:13.520Z,4.60
2018-07-13T21:41:42.076Z,4.50
2018-07-13T21:44:10.681Z,4.00
2018-07-13T21:46:39.373Z,5.73
2018-07-13T21:49:08.052Z,5.10
2018-07-13T21:51:36.684Z,4.90
2018-07-13T21:54:05.501Z,4.13
2018-07-13T21:56:34.088Z,3.97
2018-07-13T21:59:02.865Z,4.57
2018-07-13T22:01:31.456Z,4.97
2018-07-13T22:04:00.047Z,4.47
2018-07-13T22:06:31.119Z,3.70
2018-07-13T22:09:00.243Z,4.43
2018-07-13T22:11:28.832Z,4.07
2018-07-13T22:13:57.486Z,4.70
2018-07-13T22:16:26.066Z,4.07
2018-07-13T22:18:54.601Z,4.60
2018-07-13T22:21:23.213Z,4.23
2018-07-13T22:23:51.811Z,4.80
2018-07-13T22:26:20.516Z,4.67
2018-07-13T22:28:49.410Z,4.13
2018-07-13T22:31:17.973Z,4.10
2018-07-13T22:33:46.536Z,5.10
2018-07-13T22:36:15.098Z,4.47
2018-07-13T22:38:43.656Z,4.30
2018-07-13T22:41:12.941Z,4.50
2018-07-13T22:43:41.830Z,3.60
2018-07-13T22:46:10.431Z,4.60
2018-07-13T22:48:39.009Z,4.07
2018-07-13T22:51:07.707Z,4.10
2018-07-13T22:53:37.076Z,4.27
2018-07-13T22:56:05.932Z,4.50
2018-07-13T22:58:34.572Z,3.47
2018-07-13T23:01:03.145Z,4.30
2018-07-13T23:03:31.889Z,4.50
2018-07-13T23:06:01.733Z,3.97
2018-07-13T23:08:30.295Z,4.60
2018-07-13T23:10:59.445Z,5.03
2018-07-13T23:13:28.234Z,4.67
2018-07-13T23:15:57.055Z,4.93
2018-07-13T23:18:25.643Z,4.27
2018-07-13T23:20:54.203Z,3.80
2018-07-13T23:23:22.818Z,3.60
2018-07-13T23:25:51.392Z,5.00
2018-07-13T23:28:19.994Z,3.80
2018-07-13T23:30:48.641Z,4.13
2018-07-13T23:33:17.284Z,4.40
2018-07-13T23:35:46.207Z,4.20
2018-07-13T23:38:14.981Z,3.77
2018-07-13T23:40:43.630Z,4.00
2018-07-13T23:43:12.593Z,4.80
2018-07-13T23:45:41.230Z,4.80
2018-07-13T23:48:09.962Z,4.30
2018-07-13T23:50:38.580Z,4.63
2018-07-13T23:53:07.208Z,4.73
2018-07-13T23:55:36.015Z,4.83
2018-07-13T23:58:04.648Z,4.30
